Newark, NJ

9:02 PM EDT en Octubre 31, 2014 (GMT -0400)
Near Red Bull Arena | Change Station
CLOSE
Current Station
Estación meteorológica personal
Location: Harrison, NJ
Altura: 23 ft
Estaciones meteorológicas cercanas

Alt 23 ft 40.74 °N, 74.15 °W | Updated 3 minutes ago

Overcast
Nublado
51.9 ° F
Sensación térmica 51.9 ° F
N
1.0
Viento Variable Viento desde ESE
Gusts 5.0 mph

Hoy
Alta -- | Baja -- ° F
--% Posibilidad de precipitaciones
Ayer
Alta -- | Baja -- ° F
Precip. -- pul
7:25 AM 5:54 PM
Cuarto creciente, 60% visible
Presión 29.88 pul
Visibilidad 10.0 Millas
Nubes Baja 2700 ft
Nubes dispersas 4500 ft
Muy nublado 8000 ft
Nublado 25000 ft
Punto de rocío 42 ° F
Humedad 68%
Precipitaciones 0.00 pul
Espesor de la nieve No disponible.
UV 0 de una escala de 12
Polen .50 de una escala de 12
Calidad del aire No disponible.
Flu Activity No disponible.
METAR KEWR 010051Z 03010KT 10SM FEW027 SCT045 BKN080 OVC250 11/04 A2988 RMK AO2 SLP119 T01110044

More Conditions Fewer Conditions

Presión 29.88 pul
Visibilidad 10.0 Millas
Nubes Baja 2700 ft
Nubes dispersas 4500 ft
Muy nublado 8000 ft
Nublado 25000 ft
Punto de rocío 42 ° F
Humedad 68%
Precipitaciones 0.00 pul
Espesor de la nieve No disponible.
UV 0 de una escala de 12
Polen .50 de una escala de 12
Calidad del aire No disponible.
Flu Activity No disponible.
METAR KEWR 010051Z 03010KT 10SM FEW027 SCT045 BKN080 OVC250 11/04 A2988 RMK AO2 SLP119 T01110044

More Conditions Fewer Conditions

10-Day Weather Forecast

Almanac

Astronomía

Oct. 31, 2014 Salida Puesta
Hora real
Crepúsculo civil
Crepúsculo náutico
Crepúsculo astronómico
Luna
Horas de luz
Horas de luz
Tomorrow will be .
, % of the Moon is Illuminated

Extremos de hoy

Máximos del estado Bajos del estado

Community

WunderPhotos

Upload Photos

1,766,798 ¡fotos cargadas!

WunderBlogs® & News

Nearby

Calidad del aire

  Calidad del aire Índice AQ Contaminante
Not available.

Grosos de nieve

Estación Profundido Altura

Actividad de terremotos

Ciudad Distance Mag. Tiempo y dato
Magnitud mínima muestra es 2,5.

Temperaturas de aguas costeras

Lugar Temperatura

Estaciones meteorológicas cercanas